Time;durP1;ratioP1;P1;durP2;ratioP2;P2;SDS_P1;SDS_P2;PMS_P1;PMS_P2;Temp;Humidity;BMP_temperature;BMP_pressure;BME280_temperature;BME280_humidity;BME280_pressure;Samples;Min_cycle;Max_cycle;Signal;HPM_P1;HPM_P2
2023/10/25 00:01:13;;;;;;;14.10;10.03;;;;;;;12.48;100.00;99661.78;4990324;28;20209;-71
2023/10/25 00:03:39;;;;;;;16.73;11.03;;;;;;;12.47;100.00;99662.91;4993929;28;20615;-70
2023/10/25 00:06:07;;;;;;;16.33;10.60;;;;;;;12.47;100.00;99657.63;4989730;28;20721;-71
2023/10/25 00:08:33;;;;;;;16.17;10.57;;;;;;;12.48;100.00;99656.50;4990074;28;20216;-71
2023/10/25 00:11:05;;;;;;;16.93;11.30;;;;;;;12.49;100.00;99664.09;4991433;28;20225;-69
2023/10/25 00:13:31;;;;;;;15.23;10.50;;;;;;;12.49;100.00;99652.72;4989206;28;20272;-71
2023/10/25 00:15:58;;;;;;;14.73;10.30;;;;;;;12.49;100.00;99658.78;4992511;28;20204;-72
2023/10/25 00:18:24;;;;;;;14.60;10.60;;;;;;;12.49;100.00;99658.78;4987935;28;20224;-71
2023/10/25 00:20:51;;;;;;;16.53;11.00;;;;;;;12.49;100.00;99660.66;4993735;28;20231;-70
2023/10/25 00:23:19;;;;;;;16.67;11.30;;;;;;;12.49;100.00;99653.50;4992320;28;20224;-71
2023/10/25 00:25:46;;;;;;;15.83;11.80;;;;;;;12.49;100.00;99652.72;4990902;28;20232;-71
2023/10/25 00:28:12;;;;;;;14.27;10.93;;;;;;;12.49;100.00;99656.13;4991603;28;20205;-71
2023/10/25 00:30:38;;;;;;;16.40;10.77;;;;;;;12.49;100.00;99653.50;4991136;28;20299;-71
2023/10/25 00:33:05;;;;;;;14.00;10.40;;;;;;;12.49;100.00;99664.09;4988769;28;20200;-71
2023/10/25 00:35:32;;;;;;;15.53;10.20;;;;;;;12.48;100.00;99654.59;4992415;28;20247;-71
2023/10/25 00:37:59;;;;;;;12.33;8.70;;;;;;;12.49;100.00;99665.97;4990687;28;20223;-69
2023/10/25 00:40:27;;;;;;;12.60;7.53;;;;;;;12.48;100.00;99659.88;4989166;28;20423;-71
2023/10/25 00:42:53;;;;;;;11.43;7.97;;;;;;;12.49;100.00;99664.09;4988640;28;20222;-71
2023/10/25 00:45:19;;;;;;;11.87;8.33;;;;;;;12.48;100.00;99659.88;4992556;28;20200;-71
2023/10/25 00:47:46;;;;;;;10.90;7.90;;;;;;;12.47;100.00;99650.41;4991668;28;20220;-71
2023/10/25 00:50:17;;;;;;;10.47;7.87;;;;;;;12.46;100.00;99664.78;4987078;28;20236;-70
2023/10/25 00:52:43;;;;;;;9.27;7.50;;;;;;;12.46;100.00;99662.13;4992793;28;20200;-71
2023/10/25 00:55:10;;;;;;;11.97;7.10;;;;;;;12.47;100.00;99670.84;4991478;28;20224;-71
2023/10/25 00:57:37;;;;;;;9.53;7.23;;;;;;;12.44;100.00;99661.75;4988312;28;20568;-71
2023/10/25 01:00:05;;;;;;;10.07;6.93;;;;;;;12.45;100.00;99660.63;4988901;28;20298;-70
2023/10/25 01:02:31;;;;;;;9.20;6.80;;;;;;;12.45;100.00;99671.22;4989346;28;20216;-71
2023/10/25 01:04:58;;;;;;;8.03;6.53;;;;;;;12.45;100.00;99662.50;4990634;28;20229;-71
2023/10/25 01:07:24;;;;;;;8.57;6.73;;;;;;;12.44;100.00;99669.69;4992860;28;20228;-71
2023/10/25 01:09:50;;;;;;;8.57;6.33;;;;;;;12.44;100.00;99667.03;4991422;28;20701;-69
2023/10/25 01:12:17;;;;;;;9.30;6.43;;;;;;;12.45;100.00;99665.13;4990729;28;20750;-71
2023/10/25 01:14:45;;;;;;;8.93;6.73;;;;;;;12.43;100.00;99665.50;5005755;28;20228;-70
2023/10/25 01:17:11;;;;;;;6.77;5.87;;;;;;;12.42;100.00;99665.88;4990746;28;20226;-71
2023/10/25 01:19:37;;;;;;;8.43;5.80;;;;;;;12.41;100.00;99664.31;4991259;28;20226;-71
2023/10/25 01:22:04;;;;;;;7.63;5.40;;;;;;;12.41;100.00;99666.97;4991592;28;20204;-71
2023/10/25 01:24:32;;;;;;;9.00;5.80;;;;;;;12.40;100.00;99660.94;4987958;28;20304;-69
2023/10/25 01:26:58;;;;;;;8.93;6.53;;;;;;;12.40;100.00;99670.75;4984443;28;20908;-71
2023/10/25 01:29:24;;;;;;;9.10;6.67;;;;;;;12.39;100.00;99662.06;4983954;28;20211;-69
2023/10/25 01:31:50;;;;;;;11.60;6.57;;;;;;;12.39;100.00;99661.28;4988835;28;20213;-71
2023/10/25 01:34:18;;;;;;;9.57;6.53;;;;;;;12.38;100.00;99665.06;4990414;28;20250;-70
2023/10/25 01:36:46;;;;;;;8.37;5.90;;;;;;;12.37;100.00;99663.53;4988775;28;20586;-71
2023/10/25 01:39:12;;;;;;;10.23;6.57;;;;;;;12.37;100.00;99669.59;4989431;28;20739;-71
2023/10/25 01:41:40;;;;;;;7.13;5.40;;;;;;;12.35;100.00;99671.84;4992174;28;20216;-71
2023/10/25 01:44:07;;;;;;;8.10;6.57;;;;;;;12.34;100.00;99665.03;4991204;28;20221;-70
2023/10/25 01:46:33;;;;;;;7.93;6.13;;;;;;;12.35;100.00;99669.19;4990581;28;20211;-71
2023/10/25 01:49:00;;;;;;;7.53;6.37;;;;;;;12.35;100.00;99671.84;4990723;28;20219;-70
2023/10/25 01:51:26;;;;;;;13.80;6.30;;;;;;;12.34;100.00;99677.47;4988070;28;20683;-71
2023/10/25 01:53:53;;;;;;;9.07;6.50;;;;;;;12.33;100.00;99676.75;4989595;28;20234;-69
2023/10/25 01:56:19;;;;;;;11.23;6.07;;;;;;;12.32;100.00;99669.88;4988562;28;20204;-70
2023/10/25 01:58:47;;;;;;;8.33;6.10;;;;;;;12.31;100.00;99673.66;4993612;28;20203;-70
2023/10/25 02:01:13;;;;;;;10.30;6.67;;;;;;;12.30;100.00;99674.78;4992533;28;20254;-68
2023/10/25 02:03:40;;;;;;;7.73;6.27;;;;;;;12.31;100.00;99675.56;4988496;28;20234;-70
2023/10/25 02:06:13;;;;;;;9.77;6.97;;;;;;;12.31;100.00;99675.56;4986649;28;20220;-71
2023/10/25 02:08:40;;;;;;;7.77;6.17;;;;;;;12.29;100.00;99683.84;4987567;28;20319;-70
2023/10/25 02:11:07;;;;;;;10.27;7.70;;;;;;;12.30;100.00;99684.59;4990232;28;20193;-71
2023/10/25 02:13:33;;;;;;;10.43;7.70;;;;;;;12.28;100.00;99682.34;4983542;28;20579;-69
2023/10/25 02:16:11;;;;;;;8.03;7.10;;;;;;;12.27;100.00;99682.69;4986595;28;20225;-70
2023/10/25 02:18:37;;;;;;;9.63;7.30;;;;;;;12.26;100.00;99686.47;4982962;28;20287;-71
2023/10/25 02:21:04;;;;;;;11.67;8.27;;;;;;;12.25;100.00;99688.34;4988263;28;20233;-70
2023/10/25 02:23:30;;;;;;;10.10;7.20;;;;;;;12.25;100.00;99690.22;5001731;28;20229;-71
2023/10/25 02:25:57;;;;;;;12.27;7.70;;;;;;;12.23;100.00;99682.66;4980543;28;20208;-71
2023/10/25 02:28:25;;;;;;;10.67;8.00;;;;;;;12.24;100.00;99691.34;4991153;28;20196;-71
2023/10/25 02:30:51;;;;;;;13.30;7.87;;;;;;;12.22;100.00;99696.22;4995685;28;20213;-71
2023/10/25 02:33:19;;;;;;;11.30;7.97;;;;;;;12.21;100.00;99692.81;4994035;28;20228;-70
2023/10/25 02:35:45;;;;;;;11.00;7.63;;;;;;;12.21;100.00;99692.06;4994206;28;20200;-71
2023/10/25 02:38:12;;;;;;;12.47;7.93;;;;;;;12.20;100.00;99685.22;4993756;28;20673;-71
2023/10/25 02:40:38;;;;;;;9.57;7.30;;;;;;;12.19;100.00;99689.75;4995221;28;20620;-71
2023/10/25 02:43:04;;;;;;;11.27;8.07;;;;;;;12.18;100.00;99687.47;4993707;28;20213;-71
2023/10/25 02:45:31;;;;;;;9.67;7.53;;;;;;;12.17;100.00;99689.34;4993429;28;20221;-71
2023/10/25 02:47:57;;;;;;;12.77;7.63;;;;;;;12.16;100.00;99697.66;4995740;28;20521;-69
2023/10/25 02:50:25;;;;;;;10.63;7.77;;;;;;;12.16;100.00;99706.34;4995684;28;20201;-69
2023/10/25 02:52:51;;;;;;;11.07;8.27;;;;;;;12.16;100.00;99701.06;5008451;28;20209;-71
2023/10/25 02:55:18;;;;;;;11.33;8.60;;;;;;;12.15;100.00;99701.41;4991634;28;20223;-70
2023/10/25 02:57:44;;;;;;;12.33;8.20;;;;;;;12.13;100.00;99711.59;4995727;28;20584;-71
2023/10/25 03:00:11;;;;;;;12.67;9.00;;;;;;;12.12;100.00;99713.47;4995788;28;20690;-71
2023/10/25 03:02:38;;;;;;;15.47;8.83;;;;;;;12.13;100.00;99715.00;4988288;28;20223;-70
2023/10/25 03:05:05;;;;;;;11.50;8.53;;;;;;;12.11;100.00;99711.94;4984431;28;20593;-70
2023/10/25 03:07:33;;;;;;;13.10;9.27;;;;;;;12.11;100.00;99717.25;4983704;28;20216;-71
2023/10/25 03:09:59;;;;;;;12.97;9.47;;;;;;;12.11;100.00;99716.50;4987487;28;20697;-70
2023/10/25 03:12:25;;;;;;;12.40;8.33;;;;;;;12.11;100.00;99724.44;4992821;28;20756;-70
2023/10/25 03:14:52;;;;;;;14.53;9.10;;;;;;;12.10;100.00;99720.22;4994506;28;20235;-71
2023/10/25 03:17:18;;;;;;;14.50;9.83;;;;;;;12.09;100.00;99724.00;4997860;28;20213;-71
2023/10/25 03:19:45;;;;;;;13.83;9.03;;;;;;;12.09;100.00;99729.28;4986932;28;20204;-70
2023/10/25 03:22:11;;;;;;;12.63;9.07;;;;;;;12.08;100.00;99722.47;4988522;28;20209;-71
2023/10/25 03:24:38;;;;;;;13.60;9.17;;;;;;;12.08;100.00;99722.47;4992881;28;20946;-71
2023/10/25 03:27:07;;;;;;;13.40;8.97;;;;;;;12.07;100.00;99719.06;4993779;28;20820;-70
2023/10/25 03:29:35;;;;;;;13.00;8.63;;;;;;;12.07;100.00;99719.06;4993785;28;20232;-69
2023/10/25 03:32:01;;;;;;;14.97;9.47;;;;;;;12.07;100.00;99728.91;5007970;28;20224;-71
2023/10/25 03:34:28;;;;;;;15.40;9.30;;;;;;;12.06;100.00;99733.41;4990852;28;20366;-71
2023/10/25 03:36:54;;;;;;;15.60;10.40;;;;;;;12.05;100.00;99731.13;4993035;28;20556;-70
2023/10/25 03:39:20;;;;;;;15.30;10.30;;;;;;;12.05;100.00;99737.19;4989683;28;20205;-70
2023/10/25 03:41:48;;;;;;;19.07;10.23;;;;;;;12.04;100.00;99734.88;4994346;28;20224;-71
2023/10/25 03:44:14;;;;;;;16.33;10.23;;;;;;;12.04;100.00;99738.31;4994658;28;20300;-70
2023/10/25 03:46:41;;;;;;;14.60;9.90;;;;;;;12.02;100.00;99729.97;4990740;28;20216;-71
2023/10/25 03:49:08;;;;;;;15.17;10.07;;;;;;;12.03;100.00;99731.50;4994367;28;20212;-69
2023/10/25 03:51:34;;;;;;;19.23;11.10;;;;;;;12.03;100.00;99730.72;4991704;28;20205;-71
2023/10/25 03:54:01;;;;;;;17.60;10.87;;;;;;;12.03;100.00;99736.00;4995253;28;20228;-71
2023/10/25 03:56:28;;;;;;;16.17;10.73;;;;;;;12.01;100.00;99735.63;4994508;28;20297;-70
2023/10/25 03:58:56;;;;;;;15.33;10.70;;;;;;;12.03;100.00;99733.38;4991866;28;20224;-70
2023/10/25 04:01:22;;;;;;;18.20;10.03;;;;;;;12.03;100.00;99720.91;4993163;28;20686;-71
2023/10/25 04:03:48;;;;;;;18.10;10.97;;;;;;;12.03;100.00;99726.19;4992313;28;20231;-71
2023/10/25 04:06:15;;;;;;;18.30;11.27;;;;;;;12.03;100.00;99730.72;4991458;28;20222;-71
2023/10/25 04:08:41;;;;;;;18.33;11.60;;;;;;;12.04;100.00;99729.59;4989457;28;20226;-71
2023/10/25 04:11:08;;;;;;;16.30;9.90;;;;;;;12.03;100.00;99728.84;4993289;28;20236;-70
2023/10/25 04:13:34;;;;;;;21.40;11.50;;;;;;;12.00;100.00;99721.59;4991745;28;20243;-70
2023/10/25 04:16:03;;;;;;;20.27;10.87;;;;;;;12.00;100.00;99726.16;4991766;28;20223;-70
2023/10/25 04:18:31;;;;;;;19.50;11.70;;;;;;;11.99;100.00;99725.38;4991261;28;20211;-71
2023/10/25 04:20:58;;;;;;;17.53;11.23;;;;;;;12.00;100.00;99728.81;4992195;28;20601;-71
2023/10/25 04:23:25;;;;;;;29.20;12.07;;;;;;;11.98;100.00;99718.56;4994850;28;20228;-71
2023/10/25 04:25:51;;;;;;;17.17;11.33;;;;;;;11.98;100.00;99720.44;4990756;28;20199;-69
2023/10/25 04:28:18;;;;;;;18.67;12.43;;;;;;;11.97;100.00;99717.03;4994349;28;20213;-71
2023/10/25 04:30:45;;;;;;;18.70;12.47;;;;;;;11.98;100.00;99721.22;4991891;28;20216;-71
2023/10/25 04:33:13;;;;;;;20.83;12.30;;;;;;;11.98;100.00;99721.22;4990364;28;20236;-69
2023/10/25 04:35:40;;;;;;;17.37;11.50;;;;;;;11.98;100.00;99723.06;4994380;28;20228;-71
2023/10/25 04:38:06;;;;;;;19.43;11.87;;;;;;;11.98;100.00;99718.56;4992220;28;20490;-71
2023/10/25 04:40:32;;;;;;;18.47;11.60;;;;;;;11.96;100.00;99720.78;4989939;28;20227;-71
2023/10/25 04:42:59;;;;;;;17.90;11.70;;;;;;;11.96;100.00;99718.13;4991279;28;20255;-71
2023/10/25 04:45:25;;;;;;;17.60;11.73;;;;;;;11.95;100.00;99708.69;4994410;28;20205;-71
2023/10/25 04:47:51;;;;;;;23.10;13.60;;;;;;;11.97;100.00;99710.97;4988022;28;20216;-69
2023/10/25 04:50:20;;;;;;;19.50;12.07;;;;;;;11.96;100.00;99720.78;4995870;28;20227;-71
2023/10/25 04:52:47;;;;;;;20.17;12.73;;;;;;;11.95;100.00;99718.50;4992800;28;20216;-71
2023/10/25 04:55:13;;;;;;;20.43;12.83;;;;;;;11.94;100.00;99715.09;4996111;28;20242;-71
2023/10/25 04:57:40;;;;;;;23.20;13.40;;;;;;;11.94;100.00;99712.44;4994626;28;20204;-71
2023/10/25 05:00:09;;;;;;;24.30;13.57;;;;;;;11.93;100.00;99707.50;4995327;28;21132;-71
2023/10/25 05:02:36;;;;;;;21.20;14.07;;;;;;;11.92;100.00;99714.69;4993828;28;20212;-72
2023/10/25 05:05:02;;;;;;;25.30;14.03;;;;;;;11.91;100.00;99710.50;4992554;28;20247;-70
2023/10/25 05:07:30;;;;;;;24.50;14.20;;;;;;;11.89;100.00;99710.09;4992312;28;20230;-69
2023/10/25 05:09:57;;;;;;;26.10;13.43;;;;;;;11.89;100.00;99701.38;4990151;28;20210;-70
2023/10/25 05:12:35;;;;;;;24.40;14.43;;;;;;;11.87;100.00;99696.47;4988584;28;20715;-69
2023/10/25 05:15:02;;;;;;;22.00;13.57;;;;;;;11.87;100.00;99703.63;4989844;28;20247;-71
2023/10/25 05:17:29;;;;;;;25.37;14.43;;;;;;;11.87;100.00;99704.41;4982370;28;20892;-71
2023/10/25 05:19:56;;;;;;;22.37;14.50;;;;;;;11.87;100.00;99703.63;4983533;28;20208;-70
2023/10/25 05:22:26;;;;;;;24.93;13.43;;;;;;;11.85;100.00;99704.00;4994165;28;20311;-70
2023/10/25 05:24:54;;;;;;;26.57;16.07;;;;;;;11.85;100.00;99703.25;4989303;28;20314;-71
2023/10/25 05:27:21;;;;;;;29.73;15.40;;;;;;;11.85;100.00;99705.88;4994814;28;20309;-71
2023/10/25 05:29:48;;;;;;;26.97;15.00;;;;;;;11.85;100.00;99708.53;4994495;28;20205;-70
2023/10/25 05:32:19;;;;;;;23.37;14.97;;;;;;;11.83;100.00;99708.88;4995519;28;20218;-71
2023/10/25 05:34:46;;;;;;;24.20;14.27;;;;;;;11.83;100.00;99710.75;4984795;28;20228;-69
2023/10/25 05:37:13;;;;;;;21.40;13.87;;;;;;;11.82;100.00;99706.56;4981771;28;20503;-71
2023/10/25 05:39:40;;;;;;;22.30;13.50;;;;;;;11.80;100.00;99709.56;4994513;28;20761;-71
2023/10/25 05:42:09;;;;;;;20.23;13.80;;;;;;;11.78;100.00;99719.75;4994697;28;20220;-70
2023/10/25 05:44:36;;;;;;;16.43;11.10;;;;;;;11.75;100.00;99717.06;4997787;28;20242;-69
2023/10/25 05:47:02;;;;;;;18.70;12.10;;;;;;;11.75;99.87;99717.81;4993095;28;20220;-70
2023/10/25 05:49:29;;;;;;;15.20;11.73;;;;;;;11.71;99.82;99718.88;4999327;28;20219;-71
2023/10/25 05:51:56;;;;;;;15.53;10.77;;;;;;;11.69;99.35;99713.19;4993797;28;20211;-71
2023/10/25 05:54:23;;;;;;;14.87;10.30;;;;;;;11.67;98.47;99718.03;4999333;28;20228;-69
2023/10/25 05:56:49;;;;;;;17.80;11.67;;;;;;;11.68;98.59;99728.28;4996266;28;20207;-71
2023/10/25 05:59:17;;;;;;;22.40;13.03;;;;;;;11.68;98.59;99728.28;4999329;28;20204;-71
2023/10/25 06:01:49;;;;;;;17.87;11.87;;;;;;;11.68;99.01;99730.16;4991132;28;20228;-70
2023/10/25 06:04:17;;;;;;;21.23;13.93;;;;;;;11.66;99.21;99735.03;4999993;28;20255;-71
2023/10/25 06:06:45;;;;;;;23.97;14.00;;;;;;;11.66;99.35;99741.09;5001278;28;20760;-71
2023/10/25 06:09:13;;;;;;;23.47;15.33;;;;;;;11.66;98.92;99748.25;5002157;28;20215;-70
2023/10/25 06:11:40;;;;;;;24.13;15.83;;;;;;;11.66;99.22;99741.09;4999118;28;20206;-71
2023/10/25 06:14:07;;;;;;;23.00;15.37;;;;;;;11.64;99.30;99738.03;5001370;28;20227;-71
2023/10/25 06:16:35;;;;;;;25.53;15.73;;;;;;;11.63;99.14;99739.16;5000772;28;20219;-71
2023/10/25 06:19:02;;;;;;;25.13;15.30;;;;;;;11.63;99.04;99733.84;5000378;28;20218;-71
2023/10/25 06:21:28;;;;;;;22.37;13.97;;;;;;;11.63;98.92;99735.72;5003319;28;20230;-72
2023/10/25 06:23:54;;;;;;;21.63;13.47;;;;;;;11.61;98.95;99735.31;4999853;28;22639;-71
2023/10/25 06:26:21;;;;;;;16.73;12.53;;;;;;;11.60;98.63;99739.84;5000221;28;21156;-69
2023/10/25 06:28:47;;;;;;;20.57;13.77;;;;;;;11.60;97.99;99739.09;4999627;28;20214;-70
2023/10/25 06:31:14;;;;;;;18.93;14.13;;;;;;;11.59;98.13;99743.59;5000824;28;20215;-71
2023/10/25 06:33:43;;;;;;;20.13;14.07;;;;;;;11.59;98.50;99735.66;5000690;28;20227;-71
2023/10/25 06:36:10;;;;;;;19.63;14.23;;;;;;;11.57;98.27;99735.22;5001865;28;20212;-69
2023/10/25 06:38:37;;;;;;;19.33;13.97;;;;;;;11.57;98.07;99737.09;5001192;28;20207;-69
2023/10/25 06:41:04;;;;;;;19.30;13.80;;;;;;;11.58;97.86;99747.34;5000091;28;20230;-71
2023/10/25 06:43:31;;;;;;;20.53;14.40;;;;;;;11.54;97.81;99748.41;5002931;28;20293;-71
2023/10/25 06:45:59;;;;;;;19.87;13.27;;;;;;;11.53;97.61;99742.34;4998590;28;20212;-71
2023/10/25 06:48:26;;;;;;;18.07;13.40;;;;;;;11.50;96.85;99747.56;5003686;28;20204;-71
2023/10/25 06:50:56;;;;;;;17.53;12.00;;;;;;;11.49;96.93;99753.97;4999621;28;20203;-70
2023/10/25 06:53:23;;;;;;;19.07;13.23;;;;;;;11.48;96.19;99761.13;5002499;28;20596;-71
2023/10/25 06:55:50;;;;;;;18.07;13.67;;;;;;;11.50;96.63;99752.84;4998086;28;20220;-69
2023/10/25 06:58:17;;;;;;;21.73;13.27;;;;;;;11.50;96.30;99748.31;5001277;28;20212;-70
2023/10/25 07:00:44;;;;;;;18.93;13.67;;;;;;;11.49;96.23;99759.25;4998248;28;20282;-71
2023/10/25 07:03:11;;;;;;;17.33;12.93;;;;;;;11.46;96.03;99759.94;5001397;28;20231;-71
2023/10/25 07:05:42;;;;;;;19.80;14.97;;;;;;;11.49;96.09;99770.59;5000218;28;20576;-71
2023/10/25 07:08:11;;;;;;;20.63;13.53;;;;;;;11.50;96.00;99764.19;5002933;28;20207;-70
2023/10/25 07:10:38;;;;;;;18.87;14.23;;;;;;;11.52;96.42;99758.53;4998660;28;20215;-71
2023/10/25 07:13:04;;;;;;;24.83;15.03;;;;;;;11.52;97.11;99764.59;5001086;28;20686;-71
2023/10/25 07:15:31;;;;;;;20.20;13.13;;;;;;;11.53;96.89;99763.50;5002612;28;20211;-71
2023/10/25 07:17:57;;;;;;;20.53;13.17;;;;;;;11.53;97.17;99760.06;4999518;28;20208;-70
2023/10/25 07:20:23;;;;;;;21.97;14.47;;;;;;;11.54;96.86;99762.38;5002805;28;20954;-71
2023/10/25 07:22:50;;;;;;;20.57;13.67;;;;;;;11.55;97.12;99763.88;4998616;28;20220;-71
2023/10/25 07:25:17;;;;;;;23.43;15.27;;;;;;;11.54;97.03;99766.91;5001515;28;20211;-70
2023/10/25 07:27:44;;;;;;;25.50;14.67;;;;;;;11.56;97.34;99775.25;5000408;28;20501;-70
2023/10/25 07:30:11;;;;;;;23.00;14.83;;;;;;;11.58;96.90;99773.00;4999291;28;20208;-69
2023/10/25 07:32:37;;;;;;;21.73;14.30;;;;;;;11.59;97.49;99780.63;5001178;28;20579;-70
2023/10/25 07:35:04;;;;;;;24.27;14.97;;;;;;;11.62;96.85;99785.22;4994247;28;20223;-71
2023/10/25 07:37:30;;;;;;;22.50;15.33;;;;;;;11.65;97.59;99781.09;5001162;28;20271;-70
2023/10/25 07:39:57;;;;;;;24.47;14.40;;;;;;;11.67;97.54;99789.44;5000680;28;20218;-70
2023/10/25 07:42:25;;;;;;;23.37;14.20;;;;;;;11.68;97.48;99790.97;4999958;28;20224;-71
2023/10/25 07:44:51;;;;;;;23.63;14.30;;;;;;;11.70;97.00;99796.69;4995070;28;20275;-70
2023/10/25 07:47:19;;;;;;;27.87;16.20;;;;;;;11.72;96.80;99791.81;5000566;28;20211;-71
2023/10/25 07:49:46;;;;;;;20.93;14.10;;;;;;;11.71;96.15;99796.34;4999757;28;20208;-70
2023/10/25 07:52:12;;;;;;;19.87;13.47;;;;;;;11.73;96.31;99794.09;4998592;28;20243;-70
2023/10/25 07:54:39;;;;;;;23.80;13.57;;;;;;;11.74;95.64;99795.63;4997375;28;20227;-70
2023/10/25 07:57:05;;;;;;;21.07;13.50;;;;;;;11.75;95.93;99794.50;4997488;28;20568;-70
2023/10/25 07:59:33;;;;;;;21.67;13.63;;;;;;;11.76;94.88;99805.84;5000600;28;20208;-71
2023/10/25 08:01:59;;;;;;;22.57;13.90;;;;;;;11.76;95.20;99803.97;4998156;28;20573;-71
2023/10/25 08:04:26;;;;;;;16.53;12.00;;;;;;;11.77;94.25;99805.50;5000328;28;20242;-70
2023/10/25 08:06:53;;;;;;;17.50;12.63;;;;;;;11.77;95.16;99802.88;4999791;28;20223;-70
2023/10/25 08:09:19;;;;;;;19.73;11.50;;;;;;;11.78;94.12;99812.31;4999401;28;20212;-70
2023/10/25 08:11:45;;;;;;;15.37;11.30;;;;;;;11.74;93.41;99808.84;4999656;28;20284;-70
2023/10/25 08:14:12;;;;;;;17.63;10.87;;;;;;;11.73;93.39;99814.47;5000527;28;20239;-71
2023/10/25 08:16:40;;;;;;;16.60;11.30;;;;;;;11.66;92.59;99809.06;4999311;28;20679;-71
2023/10/25 08:19:08;;;;;;;15.60;11.00;;;;;;;11.65;93.18;99812.84;4997938;28;20236;-70
2023/10/25 08:21:35;;;;;;;18.90;11.37;;;;;;;11.62;92.94;99810.88;5001758;28;20220;-71
2023/10/25 08:24:02;;;;;;;18.67;11.17;;;;;;;11.64;92.99;99811.31;4996379;28;20476;-71
2023/10/25 08:26:28;;;;;;;16.03;11.70;;;;;;;11.64;93.47;99811.31;5001645;28;20813;-71
2023/10/25 08:28:55;;;;;;;15.53;11.20;;;;;;;11.65;93.10;99810.94;4998837;28;20211;-71
2023/10/25 08:31:21;;;;;;;20.50;13.53;;;;;;;11.63;93.47;99810.53;4999646;28;20215;-70
2023/10/25 08:33:50;;;;;;;30.43;22.40;;;;;;;11.70;93.46;99812.56;4998828;28;20232;-70
2023/10/25 08:36:16;;;;;;;23.13;16.10;;;;;;;11.78;94.83;99812.31;5000547;28;20714;-71
2023/10/25 08:38:42;;;;;;;20.27;13.03;;;;;;;11.85;94.19;99809.06;4999205;28;20210;-71
2023/10/25 08:41:09;;;;;;;17.13;13.13;;;;;;;11.92;94.83;99799.34;4998686;28;20213;-70
2023/10/25 08:43:38;;;;;;;17.37;12.43;;;;;;;12.01;94.76;99805.16;5000791;28;20532;-70
2023/10/25 08:46:05;;;;;;;22.10;13.47;;;;;;;12.11;95.06;99817.78;4998928;28;20217;-69
2023/10/25 08:48:34;;;;;;;18.90;12.93;;;;;;;12.23;95.35;99807.06;4999914;28;20216;-71
2023/10/25 08:51:03;;;;;;;17.77;12.43;;;;;;;12.35;95.34;99798.13;4998272;28;20730;-71
2023/10/25 08:53:30;;;;;;;18.47;13.93;;;;;;;12.44;93.73;99793.34;4998193;28;20666;-70
2023/10/25 08:55:58;;;;;;;16.80;11.43;;;;;;;12.52;93.64;99782.50;4997381;28;20212;-70
2023/10/25 08:58:25;;;;;;;14.00;10.50;;;;;;;12.58;92.56;99786.38;5000573;28;20208;-69
2023/10/25 09:00:52;;;;;;;15.30;10.13;;;;;;;12.62;91.21;99784.53;4997440;28;20532;-70
2023/10/25 09:03:46;;;;;;;13.33;9.10;;;;;;;12.63;90.97;99785.31;4997670;28;20234;-71
2023/10/25 09:06:24;;;;;;;13.50;9.83;;;;;;;12.66;90.76;99777.41;4972874;28;20786;-70
2023/10/25 09:08:58;;;;;;;12.47;8.83;;;;;;;12.71;90.39;99781.63;4993807;28;20493;-71
2023/10/25 09:11:25;;;;;;;13.20;8.97;;;;;;;12.73;90.06;99774.84;4996016;28;20233;-70
2023/10/25 09:13:57;;;;;;;13.70;9.47;;;;;;;12.78;90.02;99769.25;4997378;28;20220;-70
2023/10/25 09:16:26;;;;;;;14.40;10.33;;;;;;;12.81;88.10;99765.88;4998130;28;20213;-70
2023/10/25 09:18:52;;;;;;;13.60;10.40;;;;;;;12.85;88.86;99771.22;4997716;28;20396;-70
2023/10/25 09:21:26;;;;;;;16.67;10.97;;;;;;;12.87;89.02;99764.44;4998418;28;20205;-71
2023/10/25 09:23:55;;;;;;;20.10;12.37;;;;;;;12.89;88.22;99769.41;4995775;28;20965;-71
2023/10/25 09:26:22;;;;;;;16.33;11.00;;;;;;;12.91;88.52;99778.50;4999020;28;20220;-71
2023/10/25 09:28:53;;;;;;;16.63;10.43;;;;;;;12.96;88.32;99782.75;4998185;28;20274;-70
2023/10/25 09:31:26;;;;;;;16.53;11.77;;;;;;;13.00;88.66;99791.53;5000466;28;20283;-70
2023/10/25 09:33:53;;;;;;;15.77;10.90;;;;;;;13.05;88.16;99791.94;4991857;28;20217;-70
2023/10/25 09:36:21;;;;;;;13.53;9.87;;;;;;;13.05;86.98;99791.94;4996614;28;20212;-70
2023/10/25 09:38:49;;;;;;;11.67;8.63;;;;;;;13.02;86.76;99782.09;4987564;28;20216;-70
2023/10/25 09:41:17;;;;;;;15.43;9.67;;;;;;;12.98;86.26;99789.22;4992981;28;20740;-71
2023/10/25 09:43:47;;;;;;;14.77;9.87;;;;;;;12.95;86.56;99784.59;4993260;28;20306;-68
2023/10/25 09:46:17;;;;;;;14.00;10.20;;;;;;;12.98;87.26;99786.56;4993598;28;20215;-71
2023/10/25 09:48:54;;;;;;;13.50;11.27;;;;;;;13.08;87.56;99779.88;4994317;28;20212;-68
2023/10/25 09:51:27;;;;;;;14.30;10.67;;;;;;;13.14;87.74;99781.09;4989196;28;20212;-69
2023/10/25 09:54:01;;;;;;;11.97;9.80;;;;;;;13.12;86.11;99784.09;4989014;28;21399;-70
2023/10/25 09:56:28;;;;;;;13.93;10.00;;;;;;;13.11;86.34;99785.22;4996216;28;20236;-70
2023/10/25 09:58:55;;;;;;;13.57;10.00;;;;;;;13.13;87.03;99777.66;4991775;28;20209;-71
2023/10/25 10:01:21;;;;;;;13.83;10.40;;;;;;;13.14;87.19;99783.75;4990033;28;20208;-70
2023/10/25 10:03:52;;;;;;;13.00;9.33;;;;;;;13.13;86.66;99782.19;4997813;28;20318;-71
2023/10/25 10:06:31;;;;;;;12.57;9.93;;;;;;;13.10;85.50;99783.69;4999338;28;20200;-71
2023/10/25 10:09:13;;;;;;;14.70;9.83;;;;;;;13.09;86.62;99779.50;4996956;28;20761;-69
2023/10/25 10:11:44;;;;;;;11.87;9.63;;;;;;;13.06;85.14;99771.53;4998870;28;20282;-70
2023/10/25 10:14:28;;;;;;;11.30;9.23;;;;;;;13.04;85.38;99777.19;4994425;28;20319;-71
2023/10/25 10:16:57;;;;;;;11.70;8.80;;;;;;;12.99;85.31;99771.44;4988428;28;20549;-71
2023/10/25 10:19:23;;;;;;;17.83;10.90;;;;;;;12.93;85.15;99775.50;4993789;28;21018;-70
2023/10/25 10:22:05;;;;;;;14.77;10.60;;;;;;;12.85;85.07;99776.53;4991297;28;20283;-71
2023/10/25 10:24:39;;;;;;;12.97;9.83;;;;;;;12.78;85.46;99773.78;4993488;28;20319;-71
2023/10/25 10:27:05;;;;;;;14.57;10.57;;;;;;;12.73;85.61;99769.56;4991070;28;20212;-71
2023/10/25 10:29:38;;;;;;;14.50;9.73;;;;;;;12.72;86.21;99772.56;4991212;28;20219;-71
2023/10/25 10:32:06;;;;;;;15.30;8.77;;;;;;;12.71;86.63;99771.03;4989938;28;21585;-69
2023/10/25 10:34:44;;;;;;;15.67;9.33;;;;;;;12.71;86.46;99769.16;4990088;28;20252;-69
2023/10/25 10:37:14;;;;;;;14.57;8.97;;;;;;;12.77;87.14;99772.25;4991498;28;20220;-70
2023/10/25 10:40:14;;;;;;;12.90;8.17;;;;;;;12.82;87.12;99753.38;4997340;28;20201;-70
2023/10/25 10:42:40;;;;;;;11.00;7.90;;;;;;;12.88;87.14;99754.63;4993994;28;20248;-70
2023/10/25 10:45:10;;;;;;;10.77;7.23;;;;;;;12.94;86.29;99745.97;4994502;28;20220;-70
2023/10/25 10:47:41;;;;;;;9.27;6.80;;;;;;;13.01;86.78;99745.34;4995648;28;20201;-69
2023/10/25 10:50:10;;;;;;;8.83;6.83;;;;;;;13.08;87.29;99750.72;4995313;28;20601;-69
2023/10/25 10:52:39;;;;;;;9.90;6.77;;;;;;;13.13;86.53;99750.38;4997377;28;20208;-71
2023/10/25 10:55:06;;;;;;;10.83;6.83;;;;;;;13.12;85.23;99741.69;4999761;28;20252;-70
2023/10/25 10:57:33;;;;;;;8.07;5.90;;;;;;;13.10;84.72;99738.63;5001554;28;20216;-71
2023/10/25 11:00:00;;;;;;;10.77;6.37;;;;;;;13.12;85.03;99743.56;4998895;28;20226;-71
2023/10/25 11:02:27;;;;;;;9.30;6.07;;;;;;;13.10;84.73;99743.91;4997546;28;20681;-69
2023/10/25 11:04:53;;;;;;;7.77;5.30;;;;;;;13.13;84.12;99732.59;5000091;28;20231;-70
2023/10/25 11:07:20;;;;;;;6.33;5.03;;;;;;;13.19;84.03;99731.16;5001750;28;20548;-71
2023/10/25 11:09:47;;;;;;;7.90;4.73;;;;;;;13.29;85.12;99727.06;5000462;28;20213;-70
2023/10/25 11:12:14;;;;;;;7.57;4.87;;;;;;;13.38;87.32;99727.56;4997520;28;20219;-70
2023/10/25 11:14:41;;;;;;;6.47;4.47;;;;;;;13.46;84.51;99729.16;4999690;28;20223;-70
2023/10/25 11:17:08;;;;;;;8.67;4.73;;;;;;;13.54;83.18;99731.53;4999228;28;20696;-70
2023/10/25 11:19:34;;;;;;;11.33;4.70;;;;;;;13.63;83.96;99737.28;5001637;28;20206;-70